sensor_id;sensor_type;location;lat;lon;timestamp;P1;durP1;ratioP1;P2;durP2;ratioP2
56637;SDS011;42507;51.982;20.140;2022-12-18T00:01:20;73.57;;;25.17;;
56637;SDS011;42507;51.982;20.140;2022-12-18T00:03:46;81.82;;;24.27;;
56637;SDS011;42507;51.982;20.140;2022-12-18T00:06:13;67.03;;;22.75;;
56637;SDS011;42507;51.982;20.140;2022-12-18T00:08:40;55.08;;;20.95;;
56637;SDS011;42507;51.982;20.140;2022-12-18T00:11:09;66.30;;;24.02;;
56637;SDS011;42507;51.982;20.140;2022-12-18T00:13:39;83.27;;;35.98;;
56637;SDS011;42507;51.982;20.140;2022-12-18T00:16:06;57.70;;;24.12;;
56637;SDS011;42507;51.982;20.140;2022-12-18T00:18:35;60.78;;;23.20;;
56637;SDS011;42507;51.982;20.140;2022-12-18T00:21:02;59.18;;;23.27;;
56637;SDS011;42507;51.982;20.140;2022-12-18T00:23:31;51.42;;;21.50;;
56637;SDS011;42507;51.982;20.140;2022-12-18T00:25:59;64.65;;;23.10;;
56637;SDS011;42507;51.982;20.140;2022-12-18T00:28:30;50.80;;;20.27;;
56637;SDS011;42507;51.982;20.140;2022-12-18T00:31:03;50.75;;;19.07;;
56637;SDS011;42507;51.982;20.140;2022-12-18T00:33:33;51.58;;;23.55;;
56637;SDS011;42507;51.982;20.140;2022-12-18T00:36:08;54.88;;;25.88;;
56637;SDS011;42507;51.982;20.140;2022-12-18T00:38:33;67.62;;;23.30;;
56637;SDS011;42507;51.982;20.140;2022-12-18T00:41:00;62.73;;;22.67;;
56637;SDS011;42507;51.982;20.140;2022-12-18T00:43:28;71.25;;;25.50;;
56637;SDS011;42507;51.982;20.140;2022-12-18T00:45:54;69.58;;;25.35;;
56637;SDS011;42507;51.982;20.140;2022-12-18T00:48:20;70.92;;;24.92;;
56637;SDS011;42507;51.982;20.140;2022-12-18T00:50:48;73.52;;;27.25;;
56637;SDS011;42507;51.982;20.140;2022-12-18T00:53:15;64.42;;;27.17;;
56637;SDS011;42507;51.982;20.140;2022-12-18T00:55:42;64.53;;;24.12;;
56637;SDS011;42507;51.982;20.140;2022-12-18T00:58:09;76.45;;;29.32;;
56637;SDS011;42507;51.982;20.140;2022-12-18T01:00:35;104.23;;;34.25;;
56637;SDS011;42507;51.982;20.140;2022-12-18T01:03:02;67.87;;;25.97;;
56637;SDS011;42507;51.982;20.140;2022-12-18T01:05:30;72.90;;;25.17;;
56637;SDS011;42507;51.982;20.140;2022-12-18T01:07:57;75.15;;;25.65;;
56637;SDS011;42507;51.982;20.140;2022-12-18T01:10:24;97.55;;;32.95;;
56637;SDS011;42507;51.982;20.140;2022-12-18T01:12:51;82.82;;;27.67;;
56637;SDS011;42507;51.982;20.140;2022-12-18T01:15:17;78.07;;;29.90;;
56637;SDS011;42507;51.982;20.140;2022-12-18T01:17:44;57.48;;;18.05;;
56637;SDS011;42507;51.982;20.140;2022-12-18T01:20:11;64.42;;;22.27;;
56637;SDS011;42507;51.982;20.140;2022-12-18T01:22:38;64.25;;;25.65;;
56637;SDS011;42507;51.982;20.140;2022-12-18T01:25:06;66.72;;;22.85;;
56637;SDS011;42507;51.982;20.140;2022-12-18T01:27:33;87.95;;;27.73;;
56637;SDS011;42507;51.982;20.140;2022-12-18T01:30:02;76.12;;;24.92;;
56637;SDS011;42507;51.982;20.140;2022-12-18T01:32:30;68.90;;;24.15;;
56637;SDS011;42507;51.982;20.140;2022-12-18T01:34:57;65.85;;;25.17;;
56637;SDS011;42507;51.982;20.140;2022-12-18T01:37:23;62.60;;;25.20;;
56637;SDS011;42507;51.982;20.140;2022-12-18T01:39:49;58.35;;;22.15;;
56637;SDS011;42507;51.982;20.140;2022-12-18T01:42:19;73.07;;;24.18;;
56637;SDS011;42507;51.982;20.140;2022-12-18T01:50:31;68.02;;;22.42;;
56637;SDS011;42507;51.982;20.140;2022-12-18T01:53:06;67.42;;;22.20;;
56637;SDS011;42507;51.982;20.140;2022-12-18T01:55:44;75.10;;;25.02;;
56637;SDS011;42507;51.982;20.140;2022-12-18T01:58:12;66.72;;;22.70;;
56637;SDS011;42507;51.982;20.140;2022-12-18T02:00:39;77.10;;;25.48;;
56637;SDS011;42507;51.982;20.140;2022-12-18T02:03:05;66.12;;;26.33;;
56637;SDS011;42507;51.982;20.140;2022-12-18T02:08:50;69.30;;;28.77;;
56637;SDS011;42507;51.982;20.140;2022-12-18T02:17:01;50.78;;;22.80;;
56637;SDS011;42507;51.982;20.140;2022-12-18T02:31:36;79.47;;;27.40;;
56637;SDS011;42507;51.982;20.140;2022-12-18T02:34:03;78.07;;;26.68;;
56637;SDS011;42507;51.982;20.140;2022-12-18T02:36:32;75.05;;;24.12;;
56637;SDS011;42507;51.982;20.140;2022-12-18T02:39:00;86.22;;;27.42;;
56637;SDS011;42507;51.982;20.140;2022-12-18T02:41:28;87.35;;;29.00;;
56637;SDS011;42507;51.982;20.140;2022-12-18T02:43:58;69.30;;;24.15;;
56637;SDS011;42507;51.982;20.140;2022-12-18T02:46:36;79.05;;;27.80;;
56637;SDS011;42507;51.982;20.140;2022-12-18T02:49:10;83.40;;;27.58;;
56637;SDS011;42507;51.982;20.140;2022-12-18T02:55:08;66.92;;;27.05;;
56637;SDS011;42507;51.982;20.140;2022-12-18T02:57:49;62.38;;;27.87;;
56637;SDS011;42507;51.982;20.140;2022-12-18T03:00:39;80.22;;;26.27;;
56637;SDS011;42507;51.982;20.140;2022-12-18T03:05:45;75.72;;;23.95;;
56637;SDS011;42507;51.982;20.140;2022-12-18T03:08:24;81.65;;;28.10;;
56637;SDS011;42507;51.982;20.140;2022-12-18T03:10:58;59.95;;;22.22;;
56637;SDS011;42507;51.982;20.140;2022-12-18T03:13:33;67.50;;;23.07;;
56637;SDS011;42507;51.982;20.140;2022-12-18T03:16:05;73.17;;;27.15;;
56637;SDS011;42507;51.982;20.140;2022-12-18T03:21:17;63.55;;;25.25;;
56637;SDS011;42507;51.982;20.140;2022-12-18T03:23:50;67.62;;;26.87;;
56637;SDS011;42507;51.982;20.140;2022-12-18T03:26:19;73.87;;;25.57;;
56637;SDS011;42507;51.982;20.140;2022-12-18T03:28:50;55.30;;;19.25;;
56637;SDS011;42507;51.982;20.140;2022-12-18T03:31:20;59.93;;;25.65;;
56637;SDS011;42507;51.982;20.140;2022-12-18T03:34:00;64.40;;;23.27;;
56637;SDS011;42507;51.982;20.140;2022-12-18T03:36:31;53.58;;;21.35;;
56637;SDS011;42507;51.982;20.140;2022-12-18T03:38:58;72.70;;;24.02;;
56637;SDS011;42507;51.982;20.140;2022-12-18T03:41:37;54.25;;;19.52;;
56637;SDS011;42507;51.982;20.140;2022-12-18T03:44:10;76.12;;;27.07;;
56637;SDS011;42507;51.982;20.140;2022-12-18T03:50:27;65.78;;;20.32;;
56637;SDS011;42507;51.982;20.140;2022-12-18T03:55:09;73.85;;;26.82;;
56637;SDS011;42507;51.982;20.140;2022-12-18T03:57:36;60.85;;;22.20;;
56637;SDS011;42507;51.982;20.140;2022-12-18T04:00:06;77.80;;;27.40;;
56637;SDS011;42507;51.982;20.140;2022-12-18T04:02:48;69.67;;;24.20;;
56637;SDS011;42507;51.982;20.140;2022-12-18T04:05:19;59.18;;;25.55;;
56637;SDS011;42507;51.982;20.140;2022-12-18T04:07:48;72.72;;;26.55;;
56637;SDS011;42507;51.982;20.140;2022-12-18T04:10:17;66.87;;;22.95;;
56637;SDS011;42507;51.982;20.140;2022-12-18T04:12:44;69.87;;;25.20;;
56637;SDS011;42507;51.982;20.140;2022-12-18T04:15:11;63.15;;;24.02;;
56637;SDS011;42507;51.982;20.140;2022-12-18T04:17:38;57.33;;;21.52;;
56637;SDS011;42507;51.982;20.140;2022-12-18T04:20:10;62.20;;;22.77;;
56637;SDS011;42507;51.982;20.140;2022-12-18T04:22:39;67.12;;;25.45;;
56637;SDS011;42507;51.982;20.140;2022-12-18T04:25:05;76.02;;;26.20;;
56637;SDS011;42507;51.982;20.140;2022-12-18T04:27:34;55.92;;;21.07;;
56637;SDS011;42507;51.982;20.140;2022-12-18T04:30:02;59.67;;;24.23;;
56637;SDS011;42507;51.982;20.140;2022-12-18T04:32:30;66.40;;;23.60;;
56637;SDS011;42507;51.982;20.140;2022-12-18T04:34:56;55.88;;;20.43;;
56637;SDS011;42507;51.982;20.140;2022-12-18T04:37:23;55.65;;;22.58;;
56637;SDS011;42507;51.982;20.140;2022-12-18T04:39:50;61.85;;;22.40;;
56637;SDS011;42507;51.982;20.140;2022-12-18T04:42:18;69.00;;;25.25;;
56637;SDS011;42507;51.982;20.140;2022-12-18T04:44:44;67.85;;;24.77;;
56637;SDS011;42507;51.982;20.140;2022-12-18T04:47:10;56.30;;;20.25;;
56637;SDS011;42507;51.982;20.140;2022-12-18T04:49:36;58.55;;;22.82;;
56637;SDS011;42507;51.982;20.140;2022-12-18T04:52:02;72.60;;;26.45;;
56637;SDS011;42507;51.982;20.140;2022-12-18T04:54:29;72.25;;;23.92;;
56637;SDS011;42507;51.982;20.140;2022-12-18T04:56:55;63.98;;;20.60;;
56637;SDS011;42507;51.982;20.140;2022-12-18T04:59:21;66.05;;;23.83;;
56637;SDS011;42507;51.982;20.140;2022-12-18T05:01:47;72.80;;;25.17;;
56637;SDS011;42507;51.982;20.140;2022-12-18T05:04:13;71.55;;;23.25;;
56637;SDS011;42507;51.982;20.140;2022-12-18T05:06:39;66.75;;;24.30;;
56637;SDS011;42507;51.982;20.140;2022-12-18T05:09:06;69.37;;;25.12;;
56637;SDS011;42507;51.982;20.140;2022-12-18T05:11:34;75.22;;;27.90;;
56637;SDS011;42507;51.982;20.140;2022-12-18T05:14:01;58.95;;;22.07;;
56637;SDS011;42507;51.982;20.140;2022-12-18T05:16:27;64.32;;;22.05;;
56637;SDS011;42507;51.982;20.140;2022-12-18T05:18:54;55.48;;;20.68;;
56637;SDS011;42507;51.982;20.140;2022-12-18T05:21:20;76.53;;;26.45;;
56637;SDS011;42507;51.982;20.140;2022-12-18T05:23:46;67.95;;;25.17;;
56637;SDS011;42507;51.982;20.140;2022-12-18T05:26:15;56.25;;;22.40;;
56637;SDS011;42507;51.982;20.140;2022-12-18T05:28:43;67.00;;;24.12;;
56637;SDS011;42507;51.982;20.140;2022-12-18T05:31:09;69.50;;;26.10;;
56637;SDS011;42507;51.982;20.140;2022-12-18T05:33:36;53.95;;;20.32;;
56637;SDS011;42507;51.982;20.140;2022-12-18T05:36:03;58.35;;;21.55;;
56637;SDS011;42507;51.982;20.140;2022-12-18T05:38:32;68.90;;;25.20;;
56637;SDS011;42507;51.982;20.140;2022-12-18T05:41:01;60.85;;;22.95;;
56637;SDS011;42507;51.982;20.140;2022-12-18T05:43:28;60.88;;;23.60;;
56637;SDS011;42507;51.982;20.140;2022-12-18T05:45:55;52.83;;;19.70;;
56637;SDS011;42507;51.982;20.140;2022-12-18T05:48:22;56.08;;;21.27;;
56637;SDS011;42507;51.982;20.140;2022-12-18T05:50:49;65.65;;;22.90;;
56637;SDS011;42507;51.982;20.140;2022-12-18T05:53:16;73.30;;;25.88;;
56637;SDS011;42507;51.982;20.140;2022-12-18T05:55:44;69.85;;;25.10;;
56637;SDS011;42507;51.982;20.140;2022-12-18T05:58:11;55.12;;;21.23;;
56637;SDS011;42507;51.982;20.140;2022-12-18T06:00:41;62.75;;;24.30;;
56637;SDS011;42507;51.982;20.140;2022-12-18T06:03:09;68.28;;;24.05;;
56637;SDS011;42507;51.982;20.140;2022-12-18T06:05:41;72.03;;;25.37;;
56637;SDS011;42507;51.982;20.140;2022-12-18T06:08:06;67.40;;;24.00;;
56637;SDS011;42507;51.982;20.140;2022-12-18T06:10:32;48.60;;;18.80;;
56637;SDS011;42507;51.982;20.140;2022-12-18T06:12:59;63.48;;;22.65;;
56637;SDS011;42507;51.982;20.140;2022-12-18T06:15:25;64.45;;;24.50;;
56637;SDS011;42507;51.982;20.140;2022-12-18T06:17:52;58.85;;;23.87;;
56637;SDS011;42507;51.982;20.140;2022-12-18T06:20:18;63.13;;;24.27;;
56637;SDS011;42507;51.982;20.140;2022-12-18T06:22:44;66.10;;;25.90;;
56637;SDS011;42507;51.982;20.140;2022-12-18T06:25:10;61.88;;;23.20;;
56637;SDS011;42507;51.982;20.140;2022-12-18T06:27:37;72.87;;;26.00;;
56637;SDS011;42507;51.982;20.140;2022-12-18T06:30:03;63.17;;;23.87;;
56637;SDS011;42507;51.982;20.140;2022-12-18T06:32:31;59.73;;;23.95;;
56637;SDS011;42507;51.982;20.140;2022-12-18T06:34:57;66.75;;;25.00;;
56637;SDS011;42507;51.982;20.140;2022-12-18T06:37:23;49.93;;;19.40;;
56637;SDS011;42507;51.982;20.140;2022-12-18T06:39:56;69.20;;;24.25;;
56637;SDS011;42507;51.982;20.140;2022-12-18T06:42:19;65.17;;;23.05;;
56637;SDS011;42507;51.982;20.140;2022-12-18T06:44:47;68.12;;;24.55;;
56637;SDS011;42507;51.982;20.140;2022-12-18T06:47:13;50.52;;;21.75;;
56637;SDS011;42507;51.982;20.140;2022-12-18T06:49:39;67.85;;;25.45;;
56637;SDS011;42507;51.982;20.140;2022-12-18T06:52:06;48.60;;;19.90;;
56637;SDS011;42507;51.982;20.140;2022-12-18T06:54:32;70.52;;;24.43;;
56637;SDS011;42507;51.982;20.140;2022-12-18T06:56:58;58.65;;;22.17;;
56637;SDS011;42507;51.982;20.140;2022-12-18T06:59:24;57.40;;;23.42;;
56637;SDS011;42507;51.982;20.140;2022-12-18T07:01:50;66.82;;;23.98;;
56637;SDS011;42507;51.982;20.140;2022-12-18T07:04:16;68.90;;;24.30;;
56637;SDS011;42507;51.982;20.140;2022-12-18T07:06:43;68.15;;;25.45;;
56637;SDS011;42507;51.982;20.140;2022-12-18T07:09:09;65.65;;;22.50;;
56637;SDS011;42507;51.982;20.140;2022-12-18T07:11:35;72.25;;;26.35;;
56637;SDS011;42507;51.982;20.140;2022-12-18T07:14:01;63.17;;;22.93;;
56637;SDS011;42507;51.982;20.140;2022-12-18T07:16:27;62.62;;;21.35;;
56637;SDS011;42507;51.982;20.140;2022-12-18T07:18:54;62.98;;;23.52;;
56637;SDS011;42507;51.982;20.140;2022-12-18T07:21:22;66.15;;;25.52;;
56637;SDS011;42507;51.982;20.140;2022-12-18T07:23:50;64.20;;;24.12;;
56637;SDS011;42507;51.982;20.140;2022-12-18T07:26:17;66.60;;;24.37;;
56637;SDS011;42507;51.982;20.140;2022-12-18T07:28:45;65.12;;;24.15;;
56637;SDS011;42507;51.982;20.140;2022-12-18T07:31:13;62.75;;;24.32;;
56637;SDS011;42507;51.982;20.140;2022-12-18T07:33:42;65.32;;;23.60;;
56637;SDS011;42507;51.982;20.140;2022-12-18T07:36:09;62.95;;;25.37;;
56637;SDS011;42507;51.982;20.140;2022-12-18T07:38:36;67.03;;;26.17;;
56637;SDS011;42507;51.982;20.140;2022-12-18T07:41:06;60.65;;;22.58;;
56637;SDS011;42507;51.982;20.140;2022-12-18T07:43:36;58.08;;;21.80;;
56637;SDS011;42507;51.982;20.140;2022-12-18T07:46:03;58.42;;;22.70;;
56637;SDS011;42507;51.982;20.140;2022-12-18T07:48:30;60.73;;;23.12;;
56637;SDS011;42507;51.982;20.140;2022-12-18T07:51:00;60.03;;;23.07;;
56637;SDS011;42507;51.982;20.140;2022-12-18T07:53:29;61.70;;;24.05;;
56637;SDS011;42507;51.982;20.140;2022-12-18T07:55:57;54.83;;;23.50;;
56637;SDS011;42507;51.982;20.140;2022-12-18T07:58:28;60.25;;;23.90;;
56637;SDS011;42507;51.982;20.140;2022-12-18T08:01:02;60.23;;;21.90;;
56637;SDS011;42507;51.982;20.140;2022-12-18T08:03:33;62.85;;;24.10;;
56637;SDS011;42507;51.982;20.140;2022-12-18T08:06:00;61.50;;;24.35;;
56637;SDS011;42507;51.982;20.140;2022-12-18T08:08:27;54.27;;;21.97;;
56637;SDS011;42507;51.982;20.140;2022-12-18T08:10:54;69.22;;;25.20;;
56637;SDS011;42507;51.982;20.140;2022-12-18T08:13:22;62.70;;;23.10;;
56637;SDS011;42507;51.982;20.140;2022-12-18T08:15:59;63.48;;;23.30;;
56637;SDS011;42507;51.982;20.140;2022-12-18T08:18:27;53.28;;;20.00;;
56637;SDS011;42507;51.982;20.140;2022-12-18T08:20:55;66.15;;;24.98;;
56637;SDS011;42507;51.982;20.140;2022-12-18T08:23:22;63.28;;;24.85;;
56637;SDS011;42507;51.982;20.140;2022-12-18T08:25:50;58.65;;;22.60;;
56637;SDS011;42507;51.982;20.140;2022-12-18T08:28:17;57.15;;;23.20;;
56637;SDS011;42507;51.982;20.140;2022-12-18T08:30:43;59.40;;;22.15;;
56637;SDS011;42507;51.982;20.140;2022-12-18T08:33:09;56.42;;;22.37;;
56637;SDS011;42507;51.982;20.140;2022-12-18T08:35:36;60.28;;;21.80;;
56637;SDS011;42507;51.982;20.140;2022-12-18T08:38:03;60.60;;;22.37;;
56637;SDS011;42507;51.982;20.140;2022-12-18T08:40:29;72.22;;;28.27;;
56637;SDS011;42507;51.982;20.140;2022-12-18T08:42:55;61.70;;;23.25;;
56637;SDS011;42507;51.982;20.140;2022-12-18T08:45:40;61.60;;;21.87;;
56637;SDS011;42507;51.982;20.140;2022-12-18T08:48:06;58.98;;;22.70;;
56637;SDS011;42507;51.982;20.140;2022-12-18T08:50:33;52.60;;;19.35;;
56637;SDS011;42507;51.982;20.140;2022-12-18T08:52:59;57.55;;;20.68;;
56637;SDS011;42507;51.982;20.140;2022-12-18T08:55:26;55.58;;;20.62;;
56637;SDS011;42507;51.982;20.140;2022-12-18T08:57:53;46.45;;;18.55;;
56637;SDS011;42507;51.982;20.140;2022-12-18T09:00:19;58.35;;;22.00;;
56637;SDS011;42507;51.982;20.140;2022-12-18T09:02:45;47.62;;;20.02;;
56637;SDS011;42507;51.982;20.140;2022-12-18T09:05:12;53.52;;;20.65;;
56637;SDS011;42507;51.982;20.140;2022-12-18T09:07:38;52.60;;;19.27;;
56637;SDS011;42507;51.982;20.140;2022-12-18T09:10:05;51.40;;;18.32;;
56637;SDS011;42507;51.982;20.140;2022-12-18T09:12:33;51.92;;;21.37;;
56637;SDS011;42507;51.982;20.140;2022-12-18T09:15:00;55.17;;;21.50;;
56637;SDS011;42507;51.982;20.140;2022-12-18T09:17:26;57.35;;;21.80;;
56637;SDS011;42507;51.982;20.140;2022-12-18T09:19:53;47.60;;;19.90;;
56637;SDS011;42507;51.982;20.140;2022-12-18T09:22:19;47.73;;;19.82;;
56637;SDS011;42507;51.982;20.140;2022-12-18T09:28:09;55.30;;;21.77;;
56637;SDS011;42507;51.982;20.140;2022-12-18T09:30:38;56.57;;;23.23;;
56637;SDS011;42507;51.982;20.140;2022-12-18T09:33:06;57.48;;;22.95;;
56637;SDS011;42507;51.982;20.140;2022-12-18T09:35:32;52.73;;;21.30;;
56637;SDS011;42507;51.982;20.140;2022-12-18T09:38:04;57.35;;;20.57;;
56637;SDS011;42507;51.982;20.140;2022-12-18T09:40:36;63.20;;;23.32;;
56637;SDS011;42507;51.982;20.140;2022-12-18T09:43:24;67.15;;;24.92;;
56637;SDS011;42507;51.982;20.140;2022-12-18T09:46:27;58.85;;;23.22;;
56637;SDS011;42507;51.982;20.140;2022-12-18T09:49:03;62.27;;;24.72;;
56637;SDS011;42507;51.982;20.140;2022-12-18T09:51:40;71.30;;;26.68;;
56637;SDS011;42507;51.982;20.140;2022-12-18T09:54:25;67.60;;;27.62;;
56637;SDS011;42507;51.982;20.140;2022-12-18T09:56:54;66.22;;;26.33;;
56637;SDS011;42507;51.982;20.140;2022-12-18T09:59:26;69.50;;;25.30;;
56637;SDS011;42507;51.982;20.140;2022-12-18T10:01:55;81.35;;;28.25;;
56637;SDS011;42507;51.982;20.140;2022-12-18T10:04:22;90.30;;;31.73;;
56637;SDS011;42507;51.982;20.140;2022-12-18T10:17:45;78.55;;;29.65;;
56637;SDS011;42507;51.982;20.140;2022-12-18T10:23:22;73.07;;;29.63;;
56637;SDS011;42507;51.982;20.140;2022-12-18T10:26:24;82.33;;;31.07;;
56637;SDS011;42507;51.982;20.140;2022-12-18T10:28:51;89.10;;;32.70;;
56637;SDS011;42507;51.982;20.140;2022-12-18T10:31:20;91.30;;;33.75;;
56637;SDS011;42507;51.982;20.140;2022-12-18T10:33:49;101.38;;;36.63;;
56637;SDS011;42507;51.982;20.140;2022-12-18T10:36:15;104.45;;;38.65;;
56637;SDS011;42507;51.982;20.140;2022-12-18T10:38:41;76.75;;;28.77;;
56637;SDS011;42507;51.982;20.140;2022-12-18T10:44:10;92.17;;;34.18;;
56637;SDS011;42507;51.982;20.140;2022-12-18T10:46:40;96.70;;;35.08;;
56637;SDS011;42507;51.982;20.140;2022-12-18T10:49:07;93.47;;;34.70;;
56637;SDS011;42507;51.982;20.140;2022-12-18T10:51:51;105.37;;;35.10;;
56637;SDS011;42507;51.982;20.140;2022-12-18T10:54:31;107.90;;;36.98;;
56637;SDS011;42507;51.982;20.140;2022-12-18T10:57:28;102.22;;;37.00;;
56637;SDS011;42507;51.982;20.140;2022-12-18T10:59:52;104.87;;;34.63;;
56637;SDS011;42507;51.982;20.140;2022-12-18T11:05:22;88.75;;;32.05;;
56637;SDS011;42507;51.982;20.140;2022-12-18T11:07:52;88.78;;;31.48;;
56637;SDS011;42507;51.982;20.140;2022-12-18T11:10:20;61.30;;;23.57;;
56637;SDS011;42507;51.982;20.140;2022-12-18T11:12:50;95.07;;;33.35;;
56637;SDS011;42507;51.982;20.140;2022-12-18T11:15:26;79.32;;;28.83;;
56637;SDS011;42507;51.982;20.140;2022-12-18T11:17:53;93.00;;;33.13;;
56637;SDS011;42507;51.982;20.140;2022-12-18T11:20:41;93.60;;;34.23;;
56637;SDS011;42507;51.982;20.140;2022-12-18T11:23:04;86.40;;;31.10;;
56637;SDS011;42507;51.982;20.140;2022-12-18T11:25:33;78.33;;;30.40;;
56637;SDS011;42507;51.982;20.140;2022-12-18T11:31:09;78.90;;;28.55;;
56637;SDS011;42507;51.982;20.140;2022-12-18T11:33:58;68.92;;;26.33;;
56637;SDS011;42507;51.982;20.140;2022-12-18T11:36:36;61.75;;;23.32;;
56637;SDS011;42507;51.982;20.140;2022-12-18T11:39:15;66.77;;;26.48;;
56637;SDS011;42507;51.982;20.140;2022-12-18T11:41:52;84.17;;;30.12;;
56637;SDS011;42507;51.982;20.140;2022-12-18T11:44:38;94.50;;;32.65;;
56637;SDS011;42507;51.982;20.140;2022-12-18T11:47:21;95.03;;;32.13;;
56637;SDS011;42507;51.982;20.140;2022-12-18T11:50:00;98.70;;;32.95;;
56637;SDS011;42507;51.982;20.140;2022-12-18T11:52:38;88.70;;;31.20;;
56637;SDS011;42507;51.982;20.140;2022-12-18T11:55:12;99.22;;;34.27;;
56637;SDS011;42507;51.982;20.140;2022-12-18T12:00:19;95.25;;;34.73;;
56637;SDS011;42507;51.982;20.140;2022-12-18T12:08:44;95.17;;;33.73;;
56637;SDS011;42507;51.982;20.140;2022-12-18T12:11:32;84.40;;;31.20;;
56637;SDS011;42507;51.982;20.140;2022-12-18T12:14:31;87.35;;;32.15;;
56637;SDS011;42507;51.982;20.140;2022-12-18T12:20:53;88.52;;;32.45;;
56637;SDS011;42507;51.982;20.140;2022-12-18T12:23:41;87.88;;;30.82;;
56637;SDS011;42507;51.982;20.140;2022-12-18T12:28:52;72.37;;;25.90;;
56637;SDS011;42507;51.982;20.140;2022-12-18T12:34:29;78.57;;;26.90;;
56637;SDS011;42507;51.982;20.140;2022-12-18T12:39:47;79.35;;;28.70;;
56637;SDS011;42507;51.982;20.140;2022-12-18T12:42:20;79.50;;;26.80;;
56637;SDS011;42507;51.982;20.140;2022-12-18T12:45:06;86.32;;;30.70;;
56637;SDS011;42507;51.982;20.140;2022-12-18T12:47:38;76.95;;;27.95;;
56637;SDS011;42507;51.982;20.140;2022-12-18T12:50:11;91.02;;;31.52;;
56637;SDS011;42507;51.982;20.140;2022-12-18T12:52:49;94.72;;;35.20;;
56637;SDS011;42507;51.982;20.140;2022-12-18T12:55:20;98.25;;;34.80;;
56637;SDS011;42507;51.982;20.140;2022-12-18T13:00:31;97.12;;;34.00;;
56637;SDS011;42507;51.982;20.140;2022-12-18T13:03:15;95.72;;;32.85;;
56637;SDS011;42507;51.982;20.140;2022-12-18T13:08:51;103.30;;;37.08;;
56637;SDS011;42507;51.982;20.140;2022-12-18T13:10:58;102.00;;;33.98;;
56637;SDS011;42507;51.982;20.140;2022-12-18T13:13:50;99.83;;;33.58;;
56637;SDS011;42507;51.982;20.140;2022-12-18T13:16:22;88.85;;;31.68;;
56637;SDS011;42507;51.982;20.140;2022-12-18T13:18:54;91.47;;;32.30;;
56637;SDS011;42507;51.982;20.140;2022-12-18T13:21:29;93.50;;;32.40;;
56637;SDS011;42507;51.982;20.140;2022-12-18T13:23:56;91.70;;;32.78;;
56637;SDS011;42507;51.982;20.140;2022-12-18T13:32:19;94.45;;;32.28;;
56637;SDS011;42507;51.982;20.140;2022-12-18T13:37:52;102.02;;;35.23;;
56637;SDS011;42507;51.982;20.140;2022-12-18T13:48:55;101.27;;;33.83;;
56637;SDS011;42507;51.982;20.140;2022-12-18T13:51:34;94.13;;;32.70;;
56637;SDS011;42507;51.982;20.140;2022-12-18T13:54:02;82.97;;;29.77;;
56637;SDS011;42507;51.982;20.140;2022-12-18T13:56:49;80.83;;;27.70;;
56637;SDS011;42507;51.982;20.140;2022-12-18T13:59:22;108.95;;;36.20;;
56637;SDS011;42507;51.982;20.140;2022-12-18T14:06:57;88.58;;;31.87;;
56637;SDS011;42507;51.982;20.140;2022-12-18T14:09:35;96.72;;;33.90;;
56637;SDS011;42507;51.982;20.140;2022-12-18T14:12:05;100.95;;;33.50;;
56637;SDS011;42507;51.982;20.140;2022-12-18T14:14:51;105.55;;;36.00;;
56637;SDS011;42507;51.982;20.140;2022-12-18T14:17:18;121.53;;;41.02;;
56637;SDS011;42507;51.982;20.140;2022-12-18T14:19:45;120.13;;;39.75;;
56637;SDS011;42507;51.982;20.140;2022-12-18T14:22:23;113.17;;;37.90;;
56637;SDS011;42507;51.982;20.140;2022-12-18T14:25:04;106.63;;;34.48;;
56637;SDS011;42507;51.982;20.140;2022-12-18T14:27:30;101.30;;;35.88;;
56637;SDS011;42507;51.982;20.140;2022-12-18T14:29:57;97.05;;;34.75;;
56637;SDS011;42507;51.982;20.140;2022-12-18T14:32:23;100.85;;;35.15;;
56637;SDS011;42507;51.982;20.140;2022-12-18T14:34:50;109.90;;;37.35;;
56637;SDS011;42507;51.982;20.140;2022-12-18T14:37:23;115.62;;;37.20;;
56637;SDS011;42507;51.982;20.140;2022-12-18T14:39:52;98.25;;;35.10;;
56637;SDS011;42507;51.982;20.140;2022-12-18T14:42:22;112.17;;;35.63;;
56637;SDS011;42507;51.982;20.140;2022-12-18T14:44:49;105.00;;;33.70;;
56637;SDS011;42507;51.982;20.140;2022-12-18T14:47:15;105.65;;;34.75;;
56637;SDS011;42507;51.982;20.140;2022-12-18T14:49:42;118.77;;;38.90;;
56637;SDS011;42507;51.982;20.140;2022-12-18T14:52:21;97.55;;;34.43;;
56637;SDS011;42507;51.982;20.140;2022-12-18T14:54:53;84.90;;;30.10;;
56637;SDS011;42507;51.982;20.140;2022-12-18T14:57:24;83.70;;;27.35;;
56637;SDS011;42507;51.982;20.140;2022-12-18T15:02:23;87.02;;;28.92;;
56637;SDS011;42507;51.982;20.140;2022-12-18T15:05:03;97.97;;;30.68;;
56637;SDS011;42507;51.982;20.140;2022-12-18T15:07:51;92.55;;;32.10;;
56637;SDS011;42507;51.982;20.140;2022-12-18T15:10:21;94.03;;;30.52;;
56637;SDS011;42507;51.982;20.140;2022-12-18T15:12:50;91.10;;;30.43;;
56637;SDS011;42507;51.982;20.140;2022-12-18T15:20:47;101.15;;;32.93;;
56637;SDS011;42507;51.982;20.140;2022-12-18T15:23:27;99.85;;;33.70;;
56637;SDS011;42507;51.982;20.140;2022-12-18T15:28:48;112.80;;;35.75;;
56637;SDS011;42507;51.982;20.140;2022-12-18T15:31:29;102.30;;;35.45;;
56637;SDS011;42507;51.982;20.140;2022-12-18T15:34:01;108.25;;;35.88;;
56637;SDS011;42507;51.982;20.140;2022-12-18T15:36:35;120.33;;;38.30;;
56637;SDS011;42507;51.982;20.140;2022-12-18T15:39:02;100.50;;;35.38;;
56637;SDS011;42507;51.982;20.140;2022-12-18T15:41:32;99.15;;;32.88;;
56637;SDS011;42507;51.982;20.140;2022-12-18T15:44:00;89.07;;;29.52;;
56637;SDS011;42507;51.982;20.140;2022-12-18T15:46:27;92.70;;;31.35;;
56637;SDS011;42507;51.982;20.140;2022-12-18T15:48:54;101.95;;;34.43;;
56637;SDS011;42507;51.982;20.140;2022-12-18T15:51:23;94.20;;;31.85;;
56637;SDS011;42507;51.982;20.140;2022-12-18T15:53:58;101.82;;;32.33;;
56637;SDS011;42507;51.982;20.140;2022-12-18T15:56:27;99.85;;;32.95;;
56637;SDS011;42507;51.982;20.140;2022-12-18T15:59:12;93.52;;;32.35;;
56637;SDS011;42507;51.982;20.140;2022-12-18T16:01:45;80.17;;;27.40;;
56637;SDS011;42507;51.982;20.140;2022-12-18T16:04:21;78.00;;;25.62;;
56637;SDS011;42507;51.982;20.140;2022-12-18T16:06:48;76.60;;;26.10;;
56637;SDS011;42507;51.982;20.140;2022-12-18T16:09:14;76.35;;;26.12;;
56637;SDS011;42507;51.982;20.140;2022-12-18T16:11:41;89.50;;;28.47;;
56637;SDS011;42507;51.982;20.140;2022-12-18T16:16:46;99.25;;;31.23;;
56637;SDS011;42507;51.982;20.140;2022-12-18T16:19:15;98.72;;;33.80;;
56637;SDS011;42507;51.982;20.140;2022-12-18T16:21:44;98.55;;;32.25;;
56637;SDS011;42507;51.982;20.140;2022-12-18T16:24:13;94.13;;;30.88;;
56637;SDS011;42507;51.982;20.140;2022-12-18T16:26:45;106.10;;;35.05;;
56637;SDS011;42507;51.982;20.140;2022-12-18T16:29:11;91.20;;;32.93;;
56637;SDS011;42507;51.982;20.140;2022-12-18T16:31:37;96.08;;;32.88;;
56637;SDS011;42507;51.982;20.140;2022-12-18T16:36:54;90.07;;;30.75;;
56637;SDS011;42507;51.982;20.140;2022-12-18T16:39:24;105.45;;;35.03;;